Time;durP1;ratioP1;P1;durP2;ratioP2;P2;SDS_P1;SDS_P2;PMS_P1;PMS_P2;Temp;Humidity;BMP_temperature;BMP_pressure;BME280_temperature;BME280_humidity;BME280_pressure;Samples;Min_cycle;Max_cycle;Signal;HPM_P1;HPM_P2
2023/09/10 00:01:43;;;;;;;36.50;23.10;;;;;;;;;;6258742;28;20295;-70
2023/09/10 00:04:47;;;;;;;35.85;23.10;;;;;;;;;;6258775;28;20303;-70
2023/09/10 00:07:51;;;;;;;35.75;22.75;;;;;;;;;;6258493;28;20497;-70
2023/09/10 00:10:55;;;;;;;37.20;22.98;;;;;;;;;;6259816;28;20316;-71
2023/09/10 00:13:59;;;;;;;35.75;22.80;;;;;;;;;;6258586;28;20303;-72
2023/09/10 00:17:05;;;;;;;35.05;22.85;;;;;;;;;;6259072;28;20334;-69
2023/09/10 00:20:10;;;;;;;34.08;21.73;;;;;;;;;;6258282;28;20299;-70
2023/09/10 00:23:14;;;;;;;36.25;22.50;;;;;;;;;;6258393;28;20357;-70
2023/09/10 00:26:18;;;;;;;34.40;22.55;;;;;;;;;;6258733;28;20307;-72
2023/09/10 00:29:22;;;;;;;35.30;22.27;;;;;;;;;;6258310;28;20295;-71
2023/09/10 00:32:27;;;;;;;37.03;22.50;;;;;;;;;;6257493;28;20339;-69
2023/09/10 00:35:31;;;;;;;35.53;21.67;;;;;;;;;;6274184;28;20293;-70
2023/09/10 00:38:35;;;;;;;32.70;22.70;;;;;;;;;;6256443;28;20472;-78
2023/09/10 00:41:39;;;;;;;34.67;22.75;;;;;;;;;;6273305;28;20307;-72
2023/09/10 00:44:43;;;;;;;34.33;22.25;;;;;;;;;;6258063;28;20303;-71
2023/09/10 00:47:48;;;;;;;39.15;23.15;;;;;;;;;;6257485;28;20314;-70
2023/09/10 00:50:52;;;;;;;34.63;22.90;;;;;;;;;;6256725;28;20371;-70
2023/09/10 00:53:56;;;;;;;39.30;23.67;;;;;;;;;;6272575;28;20319;-69
2023/09/10 00:57:01;;;;;;;34.85;22.85;;;;;;;;;;6272405;28;20280;-70
2023/09/10 01:00:08;;;;;;;34.75;23.05;;;;;;;;;;6256945;28;20487;-69
2023/09/10 01:03:14;;;;;;;33.47;23.08;;;;;;;;;;6272528;28;20299;-70
2023/09/10 01:06:18;;;;;;;34.58;23.15;;;;;;;;;;6258195;28;20302;-71
2023/09/10 01:09:22;;;;;;;35.33;24.15;;;;;;;;;;6272113;28;20232;-68
2023/09/10 01:12:39;;;;;;;36.00;23.55;;;;;;;;;;6232240;28;20301;-71
2023/09/10 01:15:49;;;;;;;35.67;22.52;;;;;;;;;;6232238;28;20288;-70
2023/09/10 01:18:57;;;;;;;34.50;23.52;;;;;;;;;;6247947;28;20304;-71
2023/09/10 01:22:06;;;;;;;33.35;23.23;;;;;;;;;;6232692;28;20312;-69
2023/09/10 01:25:12;;;;;;;33.90;23.60;;;;;;;;;;6230684;28;20593;-70
2023/09/10 01:28:16;;;;;;;32.65;22.65;;;;;;;;;;6232515;28;20236;-69
2023/09/10 01:31:20;;;;;;;33.10;23.60;;;;;;;;;;6232874;28;20288;-70
2023/09/10 01:34:27;;;;;;;33.20;23.02;;;;;;;;;;6247406;28;20308;-69
2023/09/10 01:37:35;;;;;;;31.40;22.80;;;;;;;;;;6233024;28;20308;-70
2023/09/10 01:40:44;;;;;;;29.92;22.25;;;;;;;;;;6230715;28;20307;-72
2023/09/10 01:43:48;;;;;;;34.67;23.75;;;;;;;;;;6239722;28;20316;-70
2023/09/10 01:46:53;;;;;;;34.28;23.83;;;;;;;;;;6271671;28;20303;-68
2023/09/10 01:49:57;;;;;;;31.08;22.95;;;;;;;;;;6254819;28;20299;-70
2023/09/10 01:53:01;;;;;;;30.02;21.70;;;;;;;;;;6256805;28;20291;-69
2023/09/10 01:56:07;;;;;;;31.40;22.98;;;;;;;;;;6255327;28;20599;-70
2023/09/10 01:59:11;;;;;;;32.40;23.00;;;;;;;;;;6271110;28;20299;-68
2023/09/10 02:02:15;;;;;;;31.60;22.10;;;;;;;;;;6255209;28;20299;-70
2023/09/10 02:05:19;;;;;;;32.55;22.85;;;;;;;;;;6254364;28;20299;-70
2023/09/10 02:08:23;;;;;;;35.17;22.83;;;;;;;;;;6254828;28;20393;-69
2023/09/10 02:11:28;;;;;;;31.02;22.70;;;;;;;;;;6271788;28;20583;-69
2023/09/10 02:14:32;;;;;;;29.13;21.38;;;;;;;;;;6271741;28;20384;-69
2023/09/10 02:17:36;;;;;;;35.42;22.95;;;;;;;;;;6254834;28;20580;-70
2023/09/10 02:20:40;;;;;;;29.63;21.98;;;;;;;;;;6256775;28;20307;-71
2023/09/10 02:23:43;;;;;;;31.25;21.75;;;;;;;;;;6257665;28;20422;-69
2023/09/10 02:26:48;;;;;;;31.30;21.65;;;;;;;;;;6260150;28;20299;-69
2023/09/10 02:29:52;;;;;;;28.70;21.98;;;;;;;;;;6276498;28;20617;-68
2023/09/10 02:32:56;;;;;;;31.13;21.83;;;;;;;;;;6259505;28;20307;-70
2023/09/10 02:36:00;;;;;;;28.13;21.27;;;;;;;;;;6275435;28;20366;-69
2023/09/10 02:39:04;;;;;;;30.38;21.83;;;;;;;;;;6257177;28;20315;-69
2023/09/10 02:42:09;;;;;;;31.38;21.98;;;;;;;;;;6260708;28;20236;-69
2023/09/10 02:45:13;;;;;;;30.10;22.25;;;;;;;;;;6260383;28;20303;-70
2023/09/10 02:48:17;;;;;;;29.85;22.20;;;;;;;;;;6257615;28;20315;-70
2023/09/10 02:51:20;;;;;;;33.63;22.48;;;;;;;;;;6260730;28;20291;-69
2023/09/10 02:54:24;;;;;;;30.75;22.13;;;;;;;;;;6258414;28;20323;-69
2023/09/10 02:57:29;;;;;;;30.33;21.73;;;;;;;;;;6258282;28;20595;-70
2023/09/10 03:00:33;;;;;;;31.40;22.58;;;;;;;;;;6275663;28;20296;-69
2023/09/10 03:03:37;;;;;;;27.33;21.35;;;;;;;;;;6257305;28;20543;-69
2023/09/10 03:06:43;;;;;;;29.75;21.58;;;;;;;;;;6258357;28;20291;-69
2023/09/10 03:09:47;;;;;;;32.05;21.35;;;;;;;;;;6258191;28;20319;-69
2023/09/10 03:12:52;;;;;;;28.30;20.95;;;;;;;;;;6274498;28;20303;-69
2023/09/10 03:15:56;;;;;;;31.08;21.73;;;;;;;;;;6258319;28;20292;-71
2023/09/10 03:19:00;;;;;;;33.20;21.45;;;;;;;;;;6257667;28;20457;-68
2023/09/10 03:22:04;;;;;;;32.00;22.10;;;;;;;;;;6260016;28;20315;-69
2023/09/10 03:25:10;;;;;;;29.02;21.05;;;;;;;;;;6274926;28;20591;-70
2023/09/10 03:28:15;;;;;;;25.92;20.45;;;;;;;;;;6275059;28;20303;-69
2023/09/10 03:31:19;;;;;;;29.30;20.38;;;;;;;;;;6258432;28;20331;-69
2023/09/10 03:34:24;;;;;;;29.20;21.73;;;;;;;;;;6256559;28;20299;-71
2023/09/10 03:37:28;;;;;;;29.63;21.35;;;;;;;;;;6258176;28;20565;-68
2023/09/10 03:40:32;;;;;;;27.58;20.90;;;;;;;;;;6272407;28;20303;-69
2023/09/10 03:43:38;;;;;;;28.90;21.27;;;;;;;;;;6257599;28;20304;-71
2023/09/10 03:46:42;;;;;;;29.30;21.75;;;;;;;;;;6258075;28;20320;-69
2023/09/10 03:49:45;;;;;;;28.65;20.73;;;;;;;;;;6274199;28;20323;-69
2023/09/10 03:52:50;;;;;;;27.15;20.15;;;;;;;;;;6258051;28;20295;-69
2023/09/10 03:55:54;;;;;;;26.67;19.92;;;;;;;;;;6258224;28;20304;-69
2023/09/10 03:59:00;;;;;;;28.48;20.80;;;;;;;;;;6274058;28;20311;-72
2023/09/10 04:02:04;;;;;;;30.70;21.75;;;;;;;;;;6274395;28;20580;-69
2023/09/10 04:05:09;;;;;;;30.05;21.63;;;;;;;;;;6258668;28;20457;-69
2023/09/10 04:08:14;;;;;;;33.25;22.50;;;;;;;;;;6258298;28;20351;-69
2023/09/10 04:11:18;;;;;;;33.58;23.05;;;;;;;;;;6257525;28;20311;-69
2023/09/10 04:14:23;;;;;;;33.92;22.33;;;;;;;;;;6272549;28;20303;-69
2023/09/10 04:17:28;;;;;;;32.33;21.67;;;;;;;;;;6258148;28;20359;-69
2023/09/10 04:20:32;;;;;;;34.42;22.30;;;;;;;;;;6256872;28;20316;-69
2023/09/10 04:23:36;;;;;;;35.08;21.80;;;;;;;;;;6257939;28;20394;-69
2023/09/10 04:26:40;;;;;;;29.60;21.38;;;;;;;;;;6273291;28;20439;-70
2023/09/10 04:29:45;;;;;;;30.67;21.17;;;;;;;;;;6256067;28;20307;-70
2023/09/10 04:32:49;;;;;;;30.25;20.75;;;;;;;;;;6257366;28;20300;-69
2023/09/10 04:35:57;;;;;;;30.45;20.77;;;;;;;;;;6256669;28;20456;-69
2023/09/10 04:39:07;;;;;;;28.38;21.17;;;;;;;;;;6253174;28;20299;-70
2023/09/10 04:42:11;;;;;;;29.33;20.23;;;;;;;;;;6272977;28;20280;-70
2023/09/10 04:45:17;;;;;;;29.38;21.08;;;;;;;;;;6255365;28;20307;-69
2023/09/10 04:48:21;;;;;;;28.50;20.58;;;;;;;;;;6272374;28;20296;-69
2023/09/10 04:51:26;;;;;;;33.22;21.52;;;;;;;;;;6273312;28;20299;-69
2023/09/10 04:54:29;;;;;;;28.80;20.92;;;;;;;;;;6257304;28;20307;-71
2023/09/10 04:57:33;;;;;;;33.78;21.80;;;;;;;;;;6256996;28;20311;-69
2023/09/10 05:00:41;;;;;;;32.08;21.48;;;;;;;;;;6256896;28;20319;-69
2023/09/10 05:03:46;;;;;;;29.38;21.23;;;;;;;;;;6272578;28;20633;-69
2023/09/10 05:06:50;;;;;;;29.55;20.38;;;;;;;;;;6257540;28;20615;-70
2023/09/10 05:09:55;;;;;;;31.27;21.30;;;;;;;;;;6272151;28;20358;-69
2023/09/10 05:12:59;;;;;;;31.55;20.88;;;;;;;;;;6255495;28;20524;-69
2023/09/10 05:16:04;;;;;;;28.73;20.52;;;;;;;;;;6255195;28;20303;-70
2023/09/10 05:19:08;;;;;;;29.02;20.17;;;;;;;;;;6254683;28;20300;-71
2023/09/10 05:22:12;;;;;;;28.27;20.50;;;;;;;;;;6255459;28;20295;-69
2023/09/10 05:25:16;;;;;;;31.58;20.58;;;;;;;;;;6256762;28;20291;-68
2023/09/10 05:28:20;;;;;;;31.35;21.17;;;;;;;;;;6271381;28;20303;-68
2023/09/10 05:31:26;;;;;;;26.42;19.27;;;;;;;;;;6256767;28;20544;-69
2023/09/10 05:34:29;;;;;;;25.77;20.25;;;;;;;;;;6271391;28;20311;-70
2023/09/10 05:37:33;;;;;;;25.50;19.55;;;;;;;;;;6255149;28;20303;-71
2023/09/10 05:40:37;;;;;;;24.88;19.33;;;;;;;;;;6253702;28;20295;-69
2023/09/10 05:43:43;;;;;;;25.75;19.20;;;;;;;;;;6254661;28;20291;-69
2023/09/10 05:46:51;;;;;;;27.45;20.15;;;;;;;;;;6256974;28;20442;-69
2023/09/10 05:49:55;;;;;;;26.08;20.50;;;;;;;;;;6271659;28;20307;-72
2023/09/10 05:52:59;;;;;;;24.83;19.52;;;;;;;;;;6254980;28;20584;-70
2023/09/10 05:56:04;;;;;;;24.10;19.33;;;;;;;;;;6255718;28;20299;-70
2023/09/10 05:59:09;;;;;;;24.42;18.73;;;;;;;;;;6274753;28;20462;-70
2023/09/10 06:02:14;;;;;;;27.15;19.85;;;;;;;;;;6261802;28;20451;-71
2023/09/10 06:05:18;;;;;;;25.67;18.92;;;;;;;;;;6260130;28;20350;-70
2023/09/10 06:08:22;;;;;;;24.77;18.63;;;;;;;;;;6260097;28;20299;-70
2023/09/10 06:11:26;;;;;;;22.50;18.50;;;;;;;;;;6276556;28;20300;-70
2023/09/10 06:14:33;;;;;;;24.73;18.17;;;;;;;;;;6259232;28;20299;-70
2023/09/10 06:17:39;;;;;;;21.95;18.13;;;;;;;;;;6259024;28;20541;-71
2023/09/10 06:20:44;;;;;;;20.13;17.63;;;;;;;;;;6276611;28;20315;-72
2023/09/10 06:23:48;;;;;;;27.48;18.52;;;;;;;;;;6275582;28;20615;-71
2023/09/10 06:26:52;;;;;;;21.58;18.08;;;;;;;;;;6276362;28;20299;-71
2023/09/10 06:30:00;;;;;;;22.58;18.88;;;;;;;;;;6274956;28;20331;-71
2023/09/10 06:33:06;;;;;;;23.15;18.25;;;;;;;;;;6258682;28;20300;-71
2023/09/10 06:36:10;;;;;;;23.23;18.08;;;;;;;;;;6275342;28;20456;-71
2023/09/10 06:39:13;;;;;;;22.33;18.27;;;;;;;;;;6257009;28;20319;-70
2023/09/10 06:42:17;;;;;;;21.17;18.08;;;;;;;;;;6259416;28;20279;-70
2023/09/10 06:45:38;;;;;;;20.52;17.95;;;;;;;;;;6257995;28;20300;-69
2023/09/10 06:48:43;;;;;;;24.33;18.35;;;;;;;;;;6275520;28;20287;-71
2023/09/10 06:51:47;;;;;;;21.67;17.67;;;;;;;;;;6260943;28;20316;-70
2023/09/10 06:54:51;;;;;;;20.00;17.70;;;;;;;;;;6260176;28;20354;-71
2023/09/10 06:57:57;;;;;;;19.38;17.48;;;;;;;;;;6259043;28;20312;-71
2023/09/10 07:01:04;;;;;;;20.75;17.08;;;;;;;;;;6260252;28;20572;-71
2023/09/10 07:04:18;;;;;;;19.67;16.88;;;;;;;;;;6260007;28;20335;-71
2023/09/10 07:07:22;;;;;;;19.35;17.30;;;;;;;;;;6259528;28;20491;-70
2023/09/10 07:10:26;;;;;;;19.00;17.02;;;;;;;;;;6247544;28;20299;-71
2023/09/10 07:13:30;;;;;;;18.90;16.92;;;;;;;;;;6259702;28;20303;-71
2023/09/10 07:16:34;;;;;;;18.40;16.50;;;;;;;;;;6260101;28;20509;-71
2023/09/10 07:19:41;;;;;;;17.98;16.02;;;;;;;;;;6259400;28;20299;-72
2023/09/10 07:22:45;;;;;;;18.10;16.33;;;;;;;;;;6259813;28;20296;-71
2023/09/10 07:25:49;;;;;;;16.70;15.00;;;;;;;;;;6275139;28;20375;-69
2023/09/10 07:28:52;;;;;;;17.92;16.13;;;;;;;;;;6259610;28;20295;-70
2023/09/10 07:31:56;;;;;;;17.85;16.08;;;;;;;;;;6259333;28;20304;-71
2023/09/10 07:35:01;;;;;;;16.83;15.23;;;;;;;;;;6259215;28;20327;-70
2023/09/10 07:38:05;;;;;;;16.30;14.80;;;;;;;;;;6259095;28;20291;-71
2023/09/10 07:41:09;;;;;;;17.02;15.30;;;;;;;;;;6257237;28;20295;-71
2023/09/10 07:44:13;;;;;;;16.17;14.60;;;;;;;;;;6258751;28;20303;-71
2023/09/10 07:47:17;;;;;;;16.50;14.68;;;;;;;;;;6259438;28;20307;-73
2023/09/10 07:50:22;;;;;;;15.85;14.32;;;;;;;;;;6258329;28;20303;-71
2023/09/10 07:53:26;;;;;;;17.77;15.93;;;;;;;;;;6258550;28;20315;-71
2023/09/10 07:56:30;;;;;;;15.30;13.90;;;;;;;;;;6258021;28;20514;-71
2023/09/10 07:59:34;;;;;;;14.95;13.65;;;;;;;;;;6258242;28;20299;-71
2023/09/10 08:02:38;;;;;;;15.35;14.00;;;;;;;;;;6258357;28;20307;-71
2023/09/10 08:05:43;;;;;;;15.90;14.30;;;;;;;;;;6258942;28;20307;-72
2023/09/10 08:08:47;;;;;;;14.80;13.40;;;;;;;;;;6258190;28;20307;-71
2023/09/10 08:11:51;;;;;;;14.68;13.27;;;;;;;;;;6258672;28;20244;-71
2023/09/10 08:14:55;;;;;;;15.23;13.80;;;;;;;;;;6258186;28;20455;-70
2023/09/10 08:17:59;;;;;;;14.55;13.10;;;;;;;;;;6257075;28;20541;-71
2023/09/10 08:21:04;;;;;;;15.23;13.82;;;;;;;;;;6258128;28;20252;-71
2023/09/10 08:24:08;;;;;;;14.68;13.27;;;;;;;;;;6257853;28;20328;-71
2023/09/10 08:27:13;;;;;;;14.90;13.40;;;;;;;;;;6258540;28;20248;-72
2023/09/10 08:30:17;;;;;;;14.82;13.32;;;;;;;;;;6256585;28;20313;-72
2023/09/10 08:33:21;;;;;;;16.48;12.45;;;;;;;;;;6257201;28;20307;-70
2023/09/10 08:36:26;;;;;;;14.65;13.02;;;;;;;;;;6257986;28;20299;-72
2023/09/10 08:39:30;;;;;;;14.93;13.35;;;;;;;;;;6255591;28;20292;-70
2023/09/10 08:42:37;;;;;;;14.95;13.43;;;;;;;;;;6256904;28;20295;-71
2023/09/10 08:45:41;;;;;;;13.52;12.23;;;;;;;;;;6257298;28;20299;-71
2023/09/10 08:48:45;;;;;;;15.38;13.57;;;;;;;;;;6258134;28;20324;-69
2023/09/10 08:51:50;;;;;;;14.30;12.90;;;;;;;;;;6257405;28;20307;-70
2023/09/10 08:54:54;;;;;;;14.02;12.82;;;;;;;;;;6256781;28;20307;-70
2023/09/10 08:57:58;;;;;;;13.63;12.40;;;;;;;;;;6256589;28;20304;-71
2023/09/10 09:01:03;;;;;;;12.60;11.38;;;;;;;;;;6257159;28;20303;-70
2023/09/10 09:04:08;;;;;;;13.68;12.38;;;;;;;;;;6256826;28;20307;-72
2023/09/10 09:07:14;;;;;;;13.00;11.75;;;;;;;;;;6255773;28;20490;-69
2023/09/10 09:10:19;;;;;;;13.23;11.93;;;;;;;;;;6271723;28;20288;-69
2023/09/10 09:13:24;;;;;;;13.23;11.98;;;;;;;;;;6255461;28;20274;-71
2023/09/10 09:16:28;;;;;;;13.40;11.98;;;;;;;;;;6256995;28;20303;-70
2023/09/10 09:19:35;;;;;;;13.88;12.52;;;;;;;;;;6256305;28;20303;-71
2023/09/10 09:22:43;;;;;;;12.73;11.48;;;;;;;;;;6255186;28;20425;-71
2023/09/10 09:25:47;;;;;;;12.40;11.48;;;;;;;;;;6256517;28;20304;-71
2023/09/10 09:28:51;;;;;;;11.88;10.85;;;;;;;;;;6256496;28;20291;-70
2023/09/10 09:31:55;;;;;;;11.38;10.57;;;;;;;;;;6255836;28;20292;-72
2023/09/10 09:34:59;;;;;;;14.82;10.98;;;;;;;;;;6256041;28;20308;-69
2023/09/10 09:38:09;;;;;;;11.27;10.32;;;;;;;;;;6256412;28;20639;-70
2023/09/10 09:41:15;;;;;;;11.75;10.57;;;;;;;;;;6255290;28;20304;-70
2023/09/10 09:44:20;;;;;;;11.55;10.35;;;;;;;;;;6256049;28;20338;-70
2023/09/10 09:47:23;;;;;;;11.45;10.35;;;;;;;;;;6256587;28;20299;-70
2023/09/10 09:50:27;;;;;;;10.93;9.93;;;;;;;;;;6256777;28;20296;-70
2023/09/10 09:53:34;;;;;;;11.20;10.23;;;;;;;;;;6256372;28;20326;-70
2023/09/10 09:56:38;;;;;;;12.60;9.80;;;;;;;;;;6256506;28;20308;-69
2023/09/10 09:59:41;;;;;;;10.88;9.93;;;;;;;;;;6256266;28;20588;-70
2023/09/10 10:02:45;;;;;;;10.90;9.77;;;;;;;;;;6256085;28;20327;-71
2023/09/10 10:05:50;;;;;;;10.93;9.88;;;;;;;;;;6254477;28;20295;-69
2023/09/10 10:08:55;;;;;;;10.75;9.70;;;;;;;;;;6255070;28;20311;-70
2023/09/10 10:12:00;;;;;;;10.93;9.93;;;;;;;;;;6254798;28;20322;-70
2023/09/10 10:15:05;;;;;;;12.75;9.85;;;;;;;;;;6255566;28;20383;-70
2023/09/10 10:18:09;;;;;;;12.18;10.02;;;;;;;;;;6254510;28;20312;-70
2023/09/10 10:21:13;;;;;;;12.48;9.88;;;;;;;;;;6255636;28;20251;-68
2023/09/10 10:24:19;;;;;;;10.68;9.77;;;;;;;;;;6255275;28;20303;-68
2023/09/10 10:27:25;;;;;;;10.15;9.40;;;;;;;;;;6255564;28;20307;-71
2023/09/10 10:30:30;;;;;;;10.65;9.85;;;;;;;;;;6255394;28;20300;-70
2023/09/10 10:33:35;;;;;;;10.02;9.13;;;;;;;;;;6254790;28;20295;-69
2023/09/10 10:36:45;;;;;;;10.40;9.40;;;;;;;;;;6255609;28;20295;-70
2023/09/10 10:40:06;;;;;;;10.27;9.15;;;;;;;;;;6253585;28;20323;-70
2023/09/10 10:43:13;;;;;;;10.75;9.48;;;;;;;;;;6255478;28;20308;-71
2023/09/10 10:46:19;;;;;;;11.25;10.18;;;;;;;;;;6260179;28;20480;-70
2023/09/10 10:49:23;;;;;;;9.90;9.20;;;;;;;;;;6259984;28;20471;-68
2023/09/10 10:52:31;;;;;;;10.05;8.73;;;;;;;;;;6259820;28;20312;-70
2023/09/10 10:55:37;;;;;;;10.05;9.15;;;;;;;;;;6259733;28;20441;-71
2023/09/10 10:58:41;;;;;;;11.27;9.23;;;;;;;;;;6259805;28;20536;-70
2023/09/10 11:02:21;;;;;;;13.95;9.43;;;;;;;;;;6275375;28;20315;-70
2023/09/10 11:05:25;;;;;;;10.18;8.95;;;;;;;;;;6259579;28;20299;-70
2023/09/10 11:08:31;;;;;;;10.25;8.93;;;;;;;;;;6259131;28;20303;-71
2023/09/10 11:11:50;;;;;;;10.23;9.23;;;;;;;;;;6260191;28;20584;-70
2023/09/10 11:15:12;;;;;;;10.15;9.35;;;;;;;;;;6258180;28;20308;-70
2023/09/10 11:18:42;;;;;;;11.43;9.63;;;;;;;;;;6258418;28;20304;-69
2023/09/10 11:22:05;;;;;;;11.18;10.27;;;;;;;;;;6259333;28;20303;-70
2023/09/10 11:25:08;;;;;;;10.90;9.85;;;;;;;;;;6259257;28;20478;-69
2023/09/10 11:28:43;;;;;;;10.93;9.93;;;;;;;;;;6259083;28;20476;-73
2023/09/10 11:31:48;;;;;;;10.38;9.65;;;;;;;;;;6259235;28;20304;-71
2023/09/10 11:34:51;;;;;;;10.80;9.90;;;;;;;;;;6259028;28;20303;-72
2023/09/10 11:37:56;;;;;;;10.70;9.93;;;;;;;;;;6259125;28;20307;-69
2023/09/10 11:41:00;;;;;;;11.80;10.25;;;;;;;;;;6257901;28;20576;-69
2023/09/10 11:44:06;;;;;;;11.10;9.98;;;;;;;;;;6258002;28;20607;-69
2023/09/10 11:47:10;;;;;;;11.13;10.15;;;;;;;;;;6259462;28;20299;-70
2023/09/10 11:50:15;;;;;;;10.15;9.43;;;;;;;;;;6258646;28;20312;-70
2023/09/10 11:53:20;;;;;;;10.70;9.25;;;;;;;;;;6258504;28;20342;-70
2023/09/10 11:56:24;;;;;;;11.65;10.35;;;;;;;;;;6257965;28;20319;-70
2023/09/10 11:59:30;;;;;;;10.77;9.68;;;;;;;;;;6258541;28;20311;-72
2023/09/10 12:02:34;;;;;;;10.98;10.13;;;;;;;;;;6258213;28;20299;-72
2023/09/10 12:05:38;;;;;;;11.30;9.75;;;;;;;;;;6258727;28;20307;-71
2023/09/10 12:08:42;;;;;;;13.20;9.60;;;;;;;;;;6257875;28;20839;-69
2023/09/10 12:11:48;;;;;;;9.98;9.27;;;;;;;;;;6258204;28;20480;-69
2023/09/10 12:14:53;;;;;;;12.40;9.32;;;;;;;;;;6258047;28;20597;-69
2023/09/10 12:17:59;;;;;;;10.00;9.10;;;;;;;;;;6257945;28;20303;-69
2023/09/10 12:21:05;;;;;;;10.48;9.38;;;;;;;;;;6257589;28;20481;-70
2023/09/10 12:24:09;;;;;;;9.82;9.00;;;;;;;;;;6256939;28;20435;-69
2023/09/10 12:27:13;;;;;;;10.00;9.15;;;;;;;;;;6258697;28;20252;-69
2023/09/10 12:30:18;;;;;;;10.50;9.18;;;;;;;;;;6257517;28;20460;-70
2023/09/10 12:33:23;;;;;;;10.70;9.18;;;;;;;;;;6236820;28;20585;-71
2023/09/10 12:36:27;;;;;;;9.90;9.00;;;;;;;;;;6248717;28;20288;-69
2023/09/10 12:39:33;;;;;;;10.23;9.27;;;;;;;;;;6231337;28;20292;-69
2023/09/10 12:42:37;;;;;;;13.00;9.25;;;;;;;;;;6232844;28;20295;-69
2023/09/10 12:45:43;;;;;;;14.15;9.35;;;;;;;;;;6256706;28;20295;-69
2023/09/10 12:48:47;;;;;;;12.52;9.45;;;;;;;;;;6257509;28;20448;-69
2023/09/10 12:51:51;;;;;;;10.10;9.20;;;;;;;;;;6257474;28;20299;-71
2023/09/10 12:54:54;;;;;;;9.68;8.80;;;;;;;;;;6257335;28;20299;-70
2023/09/10 12:57:58;;;;;;;10.32;9.30;;;;;;;;;;6257515;28;20533;-69
2023/09/10 13:01:04;;;;;;;10.27;9.40;;;;;;;;;;6256135;28;20311;-69
2023/09/10 13:04:08;;;;;;;10.05;9.35;;;;;;;;;;6256924;28;20303;-70
2023/09/10 13:07:12;;;;;;;11.93;9.07;;;;;;;;;;6255524;28;20592;-70
2023/09/10 13:10:17;;;;;;;9.75;9.00;;;;;;;;;;6256803;28;20312;-70
2023/09/10 13:13:21;;;;;;;14.95;10.13;;;;;;;;;;6257151;28;20304;-70
2023/09/10 13:16:27;;;;;;;13.13;9.60;;;;;;;;;;6257203;28;20612;-70
2023/09/10 13:19:31;;;;;;;10.93;9.82;;;;;;;;;;6257053;28;20595;-70
2023/09/10 13:22:35;;;;;;;12.75;9.77;;;;;;;;;;6256920;28;20587;-70
2023/09/10 13:25:39;;;;;;;11.55;10.10;;;;;;;;;;6257109;28;20299;-69
2023/09/10 13:28:46;;;;;;;10.55;9.55;;;;;;;;;;6256804;28;20303;-69
2023/09/10 13:31:52;;;;;;;9.48;8.85;;;;;;;;;;6256762;28;20291;-70
2023/09/10 13:34:56;;;;;;;12.65;9.88;;;;;;;;;;6256940;28;20295;-70
2023/09/10 13:38:00;;;;;;;13.27;10.00;;;;;;;;;;6256640;28;20299;-69
2023/09/10 13:41:04;;;;;;;9.95;9.00;;;;;;;;;;6255391;28;20330;-70
2023/09/10 13:44:08;;;;;;;10.13;9.20;;;;;;;;;;6256328;28;20410;-70
2023/09/10 13:47:13;;;;;;;10.77;9.40;;;;;;;;;;6256972;28;20291;-71
2023/09/10 13:50:17;;;;;;;10.43;9.25;;;;;;;;;;6256818;28;20592;-69
2023/09/10 13:53:21;;;;;;;10.20;9.30;;;;;;;;;;6254789;28;20304;-70
2023/09/10 13:56:26;;;;;;;11.23;9.60;;;;;;;;;;6256410;28;20311;-71
2023/09/10 13:59:30;;;;;;;10.05;9.13;;;;;;;;;;6256490;28;20603;-70
2023/09/10 14:02:36;;;;;;;13.02;9.38;;;;;;;;;;6255943;28;20303;-71
2023/09/10 14:05:40;;;;;;;11.23;9.30;;;;;;;;;;6256282;28;20391;-70
2023/09/10 14:08:44;;;;;;;8.88;8.27;;;;;;;;;;6256154;28;20628;-71
2023/09/10 14:11:48;;;;;;;10.15;9.25;;;;;;;;;;6256839;28;20478;-70
2023/09/10 14:14:52;;;;;;;10.07;9.20;;;;;;;;;;6255317;28;20588;-69
2023/09/10 14:17:57;;;;;;;10.93;9.10;;;;;;;;;;6256488;28;20336;-69
2023/09/10 14:21:01;;;;;;;15.00;9.75;;;;;;;;;;6260348;28;20568;-69
2023/09/10 14:24:05;;;;;;;10.10;8.95;;;;;;;;;;6261133;28;20295;-68
2023/09/10 14:27:09;;;;;;;10.30;9.20;;;;;;;;;;6260115;28;20449;-68
2023/09/10 14:30:13;;;;;;;10.30;9.40;;;;;;;;;;6261470;28;20315;-70
2023/09/10 14:33:19;;;;;;;9.77;8.70;;;;;;;;;;6260656;28;20300;-69
2023/09/10 14:36:23;;;;;;;10.05;9.02;;;;;;;;;;6261086;28;20295;-69
2023/09/10 14:39:27;;;;;;;9.95;9.05;;;;;;;;;;6258600;28;20680;-69
2023/09/10 14:42:31;;;;;;;9.65;8.85;;;;;;;;;;6259834;28;20462;-70
2023/09/10 14:45:36;;;;;;;9.95;8.95;;;;;;;;;;6260510;28;20291;-70
2023/09/10 14:48:41;;;;;;;12.20;9.02;;;;;;;;;;6259968;28;20323;-71
2023/09/10 14:51:45;;;;;;;9.00;8.15;;;;;;;;;;6260988;28;20303;-69
2023/09/10 14:54:49;;;;;;;8.90;8.30;;;;;;;;;;6260055;28;20311;-69
2023/09/10 14:57:53;;;;;;;12.05;8.27;;;;;;;;;;6260009;28;20303;-68
2023/09/10 15:00:57;;;;;;;9.25;8.25;;;;;;;;;;6260098;28;20323;-70
2023/09/10 15:04:02;;;;;;;10.30;9.15;;;;;;;;;;6259712;28;20303;-69
2023/09/10 15:07:06;;;;;;;8.70;8.20;;;;;;;;;;6260262;28;20303;-69
2023/09/10 15:10:10;;;;;;;9.68;8.85;;;;;;;;;;6259574;28;20295;-69
2023/09/10 15:13:14;;;;;;;11.32;9.23;;;;;;;;;;6259513;28;20299;-72
2023/09/10 15:16:18;;;;;;;10.80;9.82;;;;;;;;;;6259732;28;20311;-70
2023/09/10 15:19:25;;;;;;;13.32;9.20;;;;;;;;;;6259695;28;20307;-70
2023/09/10 15:22:28;;;;;;;9.32;8.55;;;;;;;;;;6259590;28;20347;-71
2023/09/10 15:25:32;;;;;;;11.65;8.98;;;;;;;;;;6260631;28;20560;-70
2023/09/10 15:28:36;;;;;;;10.23;9.10;;;;;;;;;;6259914;28;20487;-69
2023/09/10 15:31:40;;;;;;;12.32;11.15;;;;;;;;;;6259065;28;20327;-70
2023/09/10 15:34:45;;;;;;;10.18;9.38;;;;;;;;;;6260153;28;20303;-69
2023/09/10 15:37:49;;;;;;;10.07;9.18;;;;;;;;;;6259092;28;20295;-68
2023/09/10 15:40:54;;;;;;;10.60;8.82;;;;;;;;;;6258128;28;20291;-70
2023/09/10 15:44:00;;;;;;;10.20;9.32;;;;;;;;;;6259219;28;20303;-69
2023/09/10 15:47:04;;;;;;;10.80;9.60;;;;;;;;;;6259833;28;20636;-70
2023/09/10 15:50:10;;;;;;;10.10;8.73;;;;;;;;;;6258927;28;20343;-69
2023/09/10 15:53:14;;;;;;;14.07;10.30;;;;;;;;;;6258506;28;20292;-69
2023/09/10 15:56:18;;;;;;;14.50;9.75;;;;;;;;;;6259481;28;20327;-69
2023/09/10 15:59:22;;;;;;;10.45;9.32;;;;;;;;;;6258556;28;20660;-71
2023/09/10 16:02:27;;;;;;;14.57;9.55;;;;;;;;;;6257838;28;20295;-70
2023/09/10 16:05:33;;;;;;;16.25;9.00;;;;;;;;;;6258584;28;20307;-70
2023/09/10 16:08:37;;;;;;;10.52;9.48;;;;;;;;;;6256109;28;20303;-72
2023/09/10 16:11:41;;;;;;;11.50;9.30;;;;;;;;;;6256558;28;20311;-70
2023/09/10 16:14:45;;;;;;;10.20;8.77;;;;;;;;;;6257850;28;20334;-69
2023/09/10 16:17:49;;;;;;;10.93;9.75;;;;;;;;;;6257886;28;20303;-69
2023/09/10 16:20:55;;;;;;;12.90;9.40;;;;;;;;;;6273915;28;20295;-71
2023/09/10 16:23:58;;;;;;;14.82;9.57;;;;;;;;;;6257166;28;20302;-72
2023/09/10 16:27:02;;;;;;;10.70;9.70;;;;;;;;;;6273398;28;20280;-70
2023/09/10 16:30:11;;;;;;;19.25;9.38;;;;;;;;;;6257505;28;20450;-70
2023/09/10 16:33:14;;;;;;;14.77;9.98;;;;;;;;;;6257447;28;20346;-71
2023/09/10 16:36:20;;;;;;;16.48;9.95;;;;;;;;;;6258302;28;20307;-70
2023/09/10 16:39:23;;;;;;;10.98;10.15;;;;;;;;;;6255593;28;20299;-73
2023/09/10 16:42:27;;;;;;;13.45;9.98;;;;;;;;;;6257174;28;20319;-67
2023/09/10 16:45:31;;;;;;;11.40;9.68;;;;;;;;;;6257797;28;20324;-70
2023/09/10 16:48:35;;;;;;;13.07;10.10;;;;;;;;;;6257526;28;20399;-69
2023/09/10 16:51:40;;;;;;;17.45;9.43;;;;;;;;;;6257805;28;20303;-70
2023/09/10 16:54:44;;;;;;;12.77;10.23;;;;;;;;;;6257219;28;20307;-70
2023/09/10 16:57:48;;;;;;;13.45;10.65;;;;;;;;;;6257207;28;20426;-71
2023/09/10 17:00:52;;;;;;;13.68;10.80;;;;;;;;;;6257452;28;20484;-69
2023/09/10 17:03:56;;;;;;;16.25;10.25;;;;;;;;;;6257130;28;20298;-69
2023/09/10 17:07:02;;;;;;;17.15;10.55;;;;;;;;;;6257855;28;20493;-70
2023/09/10 17:10:08;;;;;;;17.10;11.25;;;;;;;;;;6257172;28;20295;-68
2023/09/10 17:13:11;;;;;;;17.10;11.65;;;;;;;;;;6256781;28;20480;-69
2023/09/10 17:16:16;;;;;;;14.23;10.82;;;;;;;;;;6257532;28;20307;-69
2023/09/10 17:19:20;;;;;;;13.15;11.75;;;;;;;;;;6257320;28;20299;-68
2023/09/10 17:22:25;;;;;;;15.13;12.70;;;;;;;;;;6257107;28;20382;-70
2023/09/10 17:25:29;;;;;;;17.23;11.95;;;;;;;;;;6257307;28;20284;-68
2023/09/10 17:28:32;;;;;;;22.60;12.80;;;;;;;;;;6256640;28;20599;-69
2023/09/10 17:31:36;;;;;;;17.70;12.68;;;;;;;;;;6256827;28;20303;-70
2023/09/10 17:34:40;;;;;;;14.77;12.90;;;;;;;;;;6256707;28;20336;-69
2023/09/10 17:37:46;;;;;;;14.73;13.18;;;;;;;;;;6256307;28;20246;-70
2023/09/10 17:40:49;;;;;;;18.50;13.38;;;;;;;;;;6255906;28;20307;-69
2023/09/10 17:43:53;;;;;;;21.85;14.40;;;;;;;;;;6256302;28;20307;-70
2023/09/10 17:47:00;;;;;;;16.30;14.20;;;;;;;;;;6257160;28;20303;-69
2023/09/10 17:50:05;;;;;;;17.80;14.40;;;;;;;;;;6256657;28;20307;-69
2023/09/10 17:53:12;;;;;;;15.35;13.85;;;;;;;;;;6271363;28;20315;-70
2023/09/10 17:56:16;;;;;;;15.13;13.63;;;;;;;;;;6261976;28;20323;-68
2023/09/10 17:59:21;;;;;;;24.67;14.23;;;;;;;;;;6261561;28;20324;-71
2023/09/10 18:02:26;;;;;;;36.33;15.55;;;;;;;;;;6261527;28;20299;-70